Time;durP1;ratioP1;P1;durP2;ratioP2;P2;SDS_P1;SDS_P2;PMS_P1;PMS_P2;Temp;Humidity;BMP_temperature;BMP_pressure;BME280_temperature;BME280_humidity;BME280_pressure;Samples;Min_cycle;Max_cycle;Signal;HPM_P1;HPM_P2
2023/01/06 00:06:16;;;;;;;4.67;2.50;;;11.00;99.90;;;;;;5074546;28;20550;-67
2023/01/06 00:08:45;;;;;;;5.57;2.37;;;11.10;99.90;;;;;;5073192;28;20208;-68
2023/01/06 00:11:15;;;;;;;4.70;2.30;;;11.10;99.90;;;;;;5074637;28;20203;-68
2023/01/06 00:13:44;;;;;;;3.93;2.17;;;11.10;99.90;;;;;;5074558;28;20593;-68
2023/01/06 00:16:14;;;;;;;3.77;2.03;;;11.10;99.90;;;;;;5073151;28;20234;-67
2023/01/06 00:18:43;;;;;;;5.30;2.20;;;11.10;99.90;;;;;;5073215;28;20241;-68
2023/01/06 00:21:13;;;;;;;5.67;2.20;;;11.10;99.90;;;;;;5073257;28;20188;-67
2023/01/06 00:23:42;;;;;;;3.87;2.27;;;11.10;99.90;;;;;;5074148;28;20694;-67
2023/01/06 00:26:11;;;;;;;4.07;2.40;;;11.10;99.90;;;;;;5072876;28;20555;-67
2023/01/06 00:33:18;;;;;;;6.10;2.90;;;11.00;99.90;;;;;;5073842;28;20658;-67
2023/01/06 00:39:42;;;;;;;8.63;2.40;;;10.90;99.90;;;;;;5072556;28;20225;-67
2023/01/06 00:42:11;;;;;;;6.47;2.10;;;11.00;99.90;;;;;;5073889;28;20196;-68
2023/01/06 00:44:40;;;;;;;2.77;2.10;;;11.00;99.90;;;;;;5074067;28;20196;-68
2023/01/06 00:47:10;;;;;;;5.13;2.50;;;11.00;99.90;;;;;;5073993;28;20267;-68
2023/01/06 00:49:40;;;;;;;7.23;2.13;;;11.00;99.90;;;;;;5074164;28;20659;-68
2023/01/06 00:52:09;;;;;;;5.30;2.07;;;11.00;99.90;;;;;;5073633;28;20196;-67
2023/01/06 00:54:41;;;;;;;5.67;2.23;;;11.00;99.90;;;;;;5073472;28;20192;-68
2023/01/06 00:57:10;;;;;;;5.67;2.20;;;11.00;99.90;;;;;;5072550;28;20251;-68
2023/01/06 00:59:39;;;;;;;4.87;2.10;;;11.00;99.90;;;;;;5074035;28;20188;-68
2023/01/06 01:02:07;;;;;;;4.27;2.47;;;11.00;99.90;;;;;;5073790;28;20196;-67
2023/01/06 01:04:36;;;;;;;2.00;1.90;;;11.00;99.90;;;;;;5073433;28;20204;-67
2023/01/06 01:07:06;;;;;;;4.70;1.83;;;11.00;99.90;;;;;;5073842;28;20696;-67
2023/01/06 01:09:34;;;;;;;5.97;1.80;;;11.00;99.90;;;;;;5072952;28;20283;-67
2023/01/06 01:12:10;;;;;;;4.73;1.60;;;11.10;99.90;;;;;;5073572;28;20196;-68
2023/01/06 01:14:41;;;;;;;3.23;1.80;;;11.10;99.90;;;;;;5073287;28;20257;-67
2023/01/06 01:17:11;;;;;;;1.73;1.63;;;11.10;99.90;;;;;;5053168;28;20282;-68
2023/01/06 01:19:40;;;;;;;6.30;1.93;;;11.10;99.90;;;;;;5053179;28;20189;-67
2023/01/06 01:26:49;;;;;;;5.37;2.00;;;11.20;99.90;;;;;;5053220;28;20169;-68
2023/01/06 01:34:02;;;;;;;2.47;1.73;;;11.20;99.90;;;;;;5053306;28;20180;-68
2023/01/06 01:36:30;;;;;;;2.87;1.60;;;11.20;99.90;;;;;;5053085;28;20216;-68
2023/01/06 01:39:01;;;;;;;2.27;1.50;;;11.10;99.90;;;;;;5053100;28;20199;-67
2023/01/06 01:41:30;;;;;;;2.70;1.90;;;11.20;99.90;;;;;;5053186;28;20195;-67
2023/01/06 01:44:02;;;;;;;2.60;1.77;;;11.20;99.90;;;;;;5051804;28;20555;-68
2023/01/06 01:46:35;;;;;;;3.13;1.60;;;11.20;99.90;;;;;;5065219;28;20207;-69
2023/01/06 01:49:08;;;;;;;3.43;2.00;;;11.20;99.90;;;;;;5073198;28;20279;-68
2023/01/06 01:51:41;;;;;;;5.50;2.00;;;11.20;99.90;;;;;;5072748;28;20202;-67
2023/01/06 01:54:14;;;;;;;5.80;1.97;;;11.20;99.90;;;;;;5073138;28;20813;-68
2023/01/06 01:56:48;;;;;;;5.60;1.90;;;11.20;99.90;;;;;;5054935;28;20222;-68
2023/01/06 01:59:21;;;;;;;2.07;1.47;;;11.10;99.90;;;;;;5073521;28;20192;-68
2023/01/06 02:05:30;;;;;;;5.13;2.10;;;11.10;99.90;;;;;;5072883;28;20654;-67
2023/01/06 02:12:42;;;;;;;7.47;2.40;;;11.00;99.90;;;;;;5073653;28;20182;-67
2023/01/06 02:15:17;;;;;;;4.33;1.90;;;11.00;99.90;;;;;;5072744;28;20188;-68
2023/01/06 02:18:07;;;;;;;4.57;1.90;;;11.00;99.90;;;;;;5071304;28;20656;-67
2023/01/06 02:20:50;;;;;;;3.53;2.07;;;11.00;99.90;;;;;;5055019;28;20206;-68
2023/01/06 02:23:58;;;;;;;3.50;2.23;;;11.00;99.90;;;;;;5076364;28;20661;-68
2023/01/06 02:27:14;;;;;;;3.50;1.80;;;11.00;99.90;;;;;;5059495;28;20204;-68
2023/01/06 02:30:22;;;;;;;2.07;1.97;;;11.00;99.90;;;;;;5075061;28;20188;-68
2023/01/06 02:33:05;;;;;;;2.60;2.40;;;10.90;99.90;;;;;;5066143;28;20200;-68
2023/01/06 02:35:48;;;;;;;4.00;2.03;;;10.80;99.90;;;;;;5058955;28;20192;-68
2023/01/06 02:38:28;;;;;;;5.53;2.43;;;10.80;99.90;;;;;;5056234;28;20660;-68
2023/01/06 02:41:09;;;;;;;6.03;1.97;;;10.80;99.90;;;;;;5056397;28;20200;-68
2023/01/06 02:43:46;;;;;;;4.33;2.20;;;10.80;99.90;;;;;;5067407;28;20196;-69
2023/01/06 02:46:27;;;;;;;3.40;1.77;;;10.80;99.90;;;;;;5061025;28;20196;-67
2023/01/06 02:49:09;;;;;;;3.37;1.80;;;10.90;99.90;;;;;;5056047;28;20189;-68
2023/01/06 02:51:51;;;;;;;4.67;2.30;;;10.90;99.90;;;;;;5058238;28;20195;-68
2023/01/06 02:54:29;;;;;;;1.80;1.70;;;10.80;99.90;;;;;;5075769;28;20192;-68
2023/01/06 02:57:08;;;;;;;5.87;1.80;;;10.80;99.90;;;;;;5060360;28;20212;-68
2023/01/06 02:59:40;;;;;;;1.77;1.67;;;10.90;99.90;;;;;;5076127;28;20203;-68
2023/01/06 03:02:10;;;;;;;1.87;1.60;;;11.00;99.90;;;;;;5063692;28;20202;-69
2023/01/06 03:04:43;;;;;;;6.13;1.70;;;11.00;99.90;;;;;;5072911;28;20279;-68
2023/01/06 03:07:15;;;;;;;3.50;1.80;;;11.00;99.90;;;;;;5077588;28;20608;-68
2023/01/06 03:09:44;;;;;;;1.50;1.40;;;11.00;99.90;;;;;;5076089;28;20199;-68
2023/01/06 03:12:20;;;;;;;4.07;1.80;;;11.00;99.90;;;;;;5074281;28;20188;-68
2023/01/06 03:14:52;;;;;;;1.67;1.57;;;11.00;99.90;;;;;;5075584;28;20194;-68
2023/01/06 03:17:21;;;;;;;2.00;1.70;;;11.00;99.90;;;;;;5075312;28;20228;-68
2023/01/06 03:19:51;;;;;;;3.60;1.60;;;11.00;99.90;;;;;;5070090;28;20207;-68
2023/01/06 03:22:21;;;;;;;1.70;1.50;;;11.00;99.90;;;;;;5089569;28;20196;-68
2023/01/06 03:24:50;;;;;;;3.87;1.87;;;11.00;99.90;;;;;;5075304;28;20674;-68
2023/01/06 03:27:25;;;;;;;1.57;1.47;;;10.90;99.90;;;;;;5074669;28;20192;-67
2023/01/06 03:29:54;;;;;;;1.97;1.50;;;10.80;99.90;;;;;;5071747;28;20249;-67
2023/01/06 03:32:27;;;;;;;5.70;1.67;;;10.80;99.90;;;;;;5074234;28;20562;-68
2023/01/06 03:35:13;;;;;;;2.40;1.53;;;10.80;99.90;;;;;;5074143;28;20534;-68
2023/01/06 03:37:50;;;;;;;1.80;1.70;;;10.80;99.90;;;;;;5074180;28;20203;-68
2023/01/06 03:40:31;;;;;;;3.13;1.70;;;10.80;99.90;;;;;;5075096;28;20214;-67
2023/01/06 03:43:14;;;;;;;1.90;1.60;;;10.80;99.90;;;;;;5073894;28;20192;-67
2023/01/06 03:45:55;;;;;;;1.20;1.20;;;10.70;99.90;;;;;;5073789;28;20222;-68
2023/01/06 03:48:32;;;;;;;2.57;1.40;;;10.70;99.90;;;;;;5073783;28;20650;-68
2023/01/06 03:51:08;;;;;;;1.50;1.40;;;10.70;99.90;;;;;;5075332;28;20539;-68
2023/01/06 03:53:42;;;;;;;4.20;1.50;;;10.70;99.90;;;;;;5074963;28;20186;-67
2023/01/06 03:56:19;;;;;;;2.20;1.57;;;10.80;99.90;;;;;;5075133;28;20191;-68
2023/01/06 03:58:51;;;;;;;2.33;1.50;;;10.70;99.90;;;;;;5074804;28;20219;-67
2023/01/06 04:01:22;;;;;;;1.80;1.70;;;10.70;99.90;;;;;;5074867;28;20255;-67
2023/01/06 04:03:52;;;;;;;1.87;1.70;;;10.70;99.90;;;;;;5074690;28;20242;-68
2023/01/06 04:06:25;;;;;;;1.50;1.50;;;10.70;99.90;;;;;;5074211;28;20196;-67
2023/01/06 04:08:53;;;;;;;2.27;1.33;;;10.70;99.90;;;;;;5073513;28;20196;-67
2023/01/06 04:14:07;;;;;;;1.57;1.30;;;10.80;99.90;;;;;;5093511;28;20179;-67
2023/01/06 04:16:36;;;;;;;1.77;1.30;;;10.80;99.90;;;;;;5086685;28;20686;-67
2023/01/06 04:19:04;;;;;;;3.93;1.37;;;10.80;99.90;;;;;;5074446;28;20212;-68
2023/01/06 04:21:34;;;;;;;2.27;1.50;;;10.80;99.90;;;;;;5074656;28;20196;-67
2023/01/06 04:24:03;;;;;;;1.50;1.40;;;10.80;99.90;;;;;;5074410;28;20218;-68
2023/01/06 04:26:32;;;;;;;3.80;1.60;;;10.90;99.90;;;;;;5070170;28;20188;-68
2023/01/06 04:29:01;;;;;;;1.57;1.47;;;10.90;99.90;;;;;;5054472;28;20267;-67
2023/01/06 04:31:29;;;;;;;3.03;1.50;;;10.90;99.90;;;;;;5054390;28;20193;-68
2023/01/06 04:33:58;;;;;;;2.33;1.33;;;10.90;99.90;;;;;;5054105;28;20552;-68
2023/01/06 04:36:26;;;;;;;11.13;1.70;;;10.90;99.90;;;;;;5053021;28;20204;-68
2023/01/06 04:38:56;;;;;;;1.93;1.50;;;10.90;99.90;;;;;;5066910;28;20220;-68
2023/01/06 04:41:25;;;;;;;1.67;1.37;;;10.90;99.90;;;;;;5056335;28;20193;-69
2023/01/06 04:43:53;;;;;;;1.27;1.20;;;10.80;99.90;;;;;;5074176;28;20609;-68
2023/01/06 04:46:25;;;;;;;1.40;1.40;;;10.80;99.90;;;;;;5074019;28;20234;-68
2023/01/06 04:48:53;;;;;;;2.23;1.50;;;10.80;99.90;;;;;;5072625;28;20558;-68
2023/01/06 04:51:22;;;;;;;2.37;1.60;;;10.80;99.90;;;;;;5073613;28;20220;-68
2023/01/06 04:53:50;;;;;;;2.03;1.40;;;10.80;99.90;;;;;;5072427;28;20282;-67
2023/01/06 04:56:20;;;;;;;1.93;1.57;;;10.80;99.90;;;;;;5073777;28;20194;-67
2023/01/06 04:58:48;;;;;;;2.33;1.73;;;10.80;99.90;;;;;;5073616;28;20220;-69
2023/01/06 05:01:17;;;;;;;4.13;1.80;;;10.80;99.90;;;;;;5072331;28;20188;-68
2023/01/06 05:04:23;;;;;;;2.70;1.50;;;10.80;99.90;;;;;;5073812;28;20555;-68
2023/01/06 05:07:29;;;;;;;2.80;1.70;;;10.80;99.90;;;;;;5073988;28;20187;-67
2023/01/06 05:10:26;;;;;;;2.40;1.63;;;10.80;99.90;;;;;;5072367;28;20203;-67
2023/01/06 05:12:57;;;;;;;5.73;1.87;;;10.80;99.90;;;;;;5073867;28;20642;-68
2023/01/06 05:15:25;;;;;;;7.00;2.07;;;10.80;99.90;;;;;;5073196;28;20269;-68
2023/01/06 05:17:53;;;;;;;3.43;2.20;;;10.80;99.90;;;;;;5073823;28;20212;-68
2023/01/06 05:20:22;;;;;;;2.23;1.83;;;10.80;99.90;;;;;;5073335;28;20202;-68
2023/01/06 05:22:50;;;;;;;2.20;2.00;;;10.80;99.90;;;;;;5073171;28;20203;-68
2023/01/06 05:25:18;;;;;;;2.17;1.80;;;10.80;99.90;;;;;;5071572;28;20249;-68
2023/01/06 05:27:47;;;;;;;2.93;2.03;;;10.80;99.90;;;;;;5073153;28;20204;-68
2023/01/06 05:30:16;;;;;;;1.90;1.80;;;10.80;99.90;;;;;;5057396;28;20197;-68
2023/01/06 05:32:45;;;;;;;2.53;1.90;;;10.80;99.90;;;;;;5053132;28;20193;-68
2023/01/06 05:35:13;;;;;;;2.13;1.90;;;10.80;99.90;;;;;;5059187;28;20206;-68
2023/01/06 05:37:41;;;;;;;1.83;1.73;;;10.80;99.90;;;;;;5073002;28;20188;-68
2023/01/06 05:40:11;;;;;;;2.10;1.90;;;10.80;99.90;;;;;;5072983;28;20199;-68
2023/01/06 05:42:39;;;;;;;2.07;1.70;;;10.80;99.90;;;;;;5073010;28;20188;-67
2023/01/06 05:45:10;;;;;;;2.07;1.87;;;10.90;99.90;;;;;;5072297;28;20286;-68
2023/01/06 05:54:56;;;;;;;2.50;1.90;;;11.00;99.90;;;;;;5071616;28;20291;-68
2023/01/06 05:57:24;;;;;;;2.23;2.10;;;11.00;99.90;;;;;;5108704;28;20583;-67
2023/01/06 05:59:53;;;;;;;4.77;1.87;;;11.00;99.90;;;;;;5076702;28;20243;-68
2023/01/06 06:02:23;;;;;;;1.50;1.50;;;10.90;99.90;;;;;;5075971;28;20194;-68
2023/01/06 06:04:51;;;;;;;2.00;1.80;;;11.00;99.90;;;;;;5076705;28;20223;-69
2023/01/06 06:07:19;;;;;;;1.97;1.60;;;11.00;99.90;;;;;;5076905;28;20501;-68
2023/01/06 06:09:48;;;;;;;1.53;1.53;;;10.90;99.90;;;;;;5076791;28;20192;-67
2023/01/06 06:12:18;;;;;;;3.90;1.73;;;10.90;99.90;;;;;;5057172;28;20207;-68
2023/01/06 06:14:46;;;;;;;2.20;1.70;;;10.90;99.90;;;;;;5056576;28;20193;-68
2023/01/06 06:17:14;;;;;;;1.50;1.50;;;10.90;99.90;;;;;;5098564;28;20258;-68
2023/01/06 06:19:43;;;;;;;1.60;1.60;;;10.90;99.90;;;;;;5054822;28;20213;-67
2023/01/06 06:22:11;;;;;;;1.43;1.43;;;10.90;99.90;;;;;;5062357;28;20196;-68
2023/01/06 06:24:39;;;;;;;1.80;1.70;;;10.90;99.90;;;;;;5075139;28;20219;-68
2023/01/06 06:27:08;;;;;;;2.53;1.70;;;11.00;99.90;;;;;;5076105;28;20196;-68
2023/01/06 06:29:37;;;;;;;2.13;1.53;;;11.00;99.90;;;;;;5076182;28;20195;-68
2023/01/06 06:32:06;;;;;;;2.13;1.43;;;11.00;99.90;;;;;;5071918;28;20200;-68
2023/01/06 06:34:34;;;;;;;1.70;1.60;;;11.00;99.90;;;;;;5071739;28;20216;-67
2023/01/06 06:37:03;;;;;;;1.90;1.80;;;11.00;99.90;;;;;;5056413;28;20189;-67
2023/01/06 06:39:31;;;;;;;1.80;1.70;;;11.00;99.90;;;;;;5056401;28;20208;-68
2023/01/06 06:42:02;;;;;;;1.90;1.90;;;11.00;99.90;;;;;;5088415;28;20193;-67
2023/01/06 06:44:30;;;;;;;1.50;1.50;;;11.00;99.90;;;;;;5071661;28;20189;-68
2023/01/06 06:47:00;;;;;;;1.80;1.70;;;11.00;99.90;;;;;;5076203;28;20228;-68
2023/01/06 06:49:28;;;;;;;2.00;1.90;;;11.00;99.90;;;;;;5075237;28;20184;-68
2023/01/06 06:51:56;;;;;;;3.87;1.80;;;11.00;99.90;;;;;;5074821;28;20646;-67
2023/01/06 06:54:25;;;;;;;1.93;1.90;;;11.00;99.90;;;;;;5076124;28;20208;-68
2023/01/06 06:56:53;;;;;;;2.03;1.93;;;11.00;99.90;;;;;;5075836;28;20196;-69
2023/01/06 06:59:22;;;;;;;2.30;2.00;;;11.00;99.90;;;;;;5076041;28;20303;-68
2023/01/06 07:01:50;;;;;;;2.43;2.20;;;11.00;99.90;;;;;;5075764;28;20196;-67
2023/01/06 07:04:20;;;;;;;3.03;2.20;;;10.90;99.90;;;;;;5075781;28;20721;-67
2023/01/06 07:06:49;;;;;;;2.37;2.37;;;10.90;99.90;;;;;;5074310;28;20200;-67
2023/01/06 07:09:17;;;;;;;3.77;2.70;;;10.90;99.90;;;;;;5074855;28;20756;-68
2023/01/06 07:11:45;;;;;;;2.80;2.70;;;10.90;99.90;;;;;;5074398;28;20189;-68
2023/01/06 07:14:14;;;;;;;3.03;2.90;;;10.80;99.90;;;;;;5075962;28;20195;-68
2023/01/06 07:16:42;;;;;;;2.83;2.60;;;10.80;99.90;;;;;;5075916;28;20228;-67
2023/01/06 07:19:10;;;;;;;3.63;2.50;;;10.80;99.90;;;;;;5076101;28;20208;-68
2023/01/06 07:26:17;;;;;;;2.43;2.33;;;10.80;99.90;;;;;;5076089;28;20171;-67
2023/01/06 07:28:46;;;;;;;2.70;2.60;;;10.70;99.90;;;;;;5074075;28;20188;-67
2023/01/06 07:31:14;;;;;;;2.50;2.40;;;10.70;99.90;;;;;;5076027;28;20283;-68
2023/01/06 07:33:43;;;;;;;3.30;2.40;;;10.70;99.90;;;;;;5074398;28;20203;-68
2023/01/06 07:36:11;;;;;;;3.87;2.23;;;10.70;99.90;;;;;;5057281;28;20217;-68
2023/01/06 07:38:39;;;;;;;2.20;2.20;;;10.70;99.90;;;;;;5075479;28;20558;-68
2023/01/06 07:41:08;;;;;;;2.87;2.50;;;10.70;99.90;;;;;;5107711;28;20216;-69
2023/01/06 07:43:37;;;;;;;2.70;2.50;;;10.70;99.90;;;;;;5074275;28;20184;-68
2023/01/06 07:46:06;;;;;;;1.90;1.87;;;10.70;99.90;;;;;;5074015;28;20188;-68
2023/01/06 07:48:37;;;;;;;4.13;2.27;;;10.70;99.90;;;;;;5075200;28;20212;-68
2023/01/06 07:51:06;;;;;;;2.00;2.00;;;10.70;99.90;;;;;;5074879;28;20184;-68
2023/01/06 07:53:35;;;;;;;1.90;1.80;;;10.70;99.90;;;;;;5073742;28;20477;-68
2023/01/06 07:56:04;;;;;;;2.03;2.00;;;10.80;99.90;;;;;;5074870;28;20203;-68
2023/01/06 07:58:32;;;;;;;2.47;1.90;;;10.80;99.90;;;;;;5074697;28;20204;-68
2023/01/06 08:01:07;;;;;;;1.90;1.80;;;10.80;99.90;;;;;;5074705;28;20218;-68
2023/01/06 08:03:35;;;;;;;1.67;1.50;;;10.80;99.90;;;;;;5074848;28;20191;-68
2023/01/06 08:06:07;;;;;;;1.70;1.70;;;10.80;99.90;;;;;;5074940;28;20202;-67
2023/01/06 08:08:37;;;;;;;2.83;1.97;;;10.80;99.90;;;;;;5073522;28;20192;-67
2023/01/06 08:11:06;;;;;;;2.03;1.87;;;10.80;99.90;;;;;;5073391;28;20196;-68
2023/01/06 08:13:34;;;;;;;1.90;1.80;;;10.90;99.90;;;;;;5074468;28;20279;-68
2023/01/06 08:16:06;;;;;;;2.10;1.83;;;10.90;99.90;;;;;;5074198;28;20754;-67
2023/01/06 08:18:36;;;;;;;1.80;1.70;;;10.90;99.90;;;;;;5074260;28;20202;-69
2023/01/06 08:21:07;;;;;;;2.93;1.97;;;10.80;99.90;;;;;;5056354;28;20284;-68
2023/01/06 08:23:36;;;;;;;1.80;1.70;;;10.80;99.90;;;;;;5074325;28;20672;-68
2023/01/06 08:26:06;;;;;;;3.50;2.27;;;10.90;99.90;;;;;;5074565;28;20534;-68
2023/01/06 08:28:35;;;;;;;2.17;1.80;;;10.90;99.90;;;;;;5073453;28;20198;-67
2023/01/06 08:31:03;;;;;;;4.03;1.87;;;10.90;99.90;;;;;;5074360;28;20214;-68
2023/01/06 08:33:33;;;;;;;3.43;1.80;;;10.90;99.90;;;;;;5072908;28;20193;-68
2023/01/06 08:36:04;;;;;;;2.40;1.80;;;11.00;99.90;;;;;;5073973;28;20199;-68
2023/01/06 08:38:33;;;;;;;2.73;1.90;;;11.00;99.90;;;;;;5073078;28;20203;-68
2023/01/06 08:41:03;;;;;;;2.13;1.93;;;10.90;99.90;;;;;;5073982;28;20223;-68
2023/01/06 08:43:33;;;;;;;4.87;1.90;;;10.90;99.90;;;;;;5074030;28;20196;-68
2023/01/06 08:46:02;;;;;;;3.20;1.60;;;10.80;99.90;;;;;;5074230;28;20270;-68
2023/01/06 08:48:34;;;;;;;2.13;1.97;;;10.80;99.90;;;;;;5074237;28;20191;-68
2023/01/06 08:51:03;;;;;;;2.63;1.60;;;10.80;99.90;;;;;;5073878;28;20187;-68
2023/01/06 08:53:33;;;;;;;3.80;2.03;;;10.90;99.90;;;;;;5074001;28;20279;-68
2023/01/06 08:56:01;;;;;;;2.10;1.97;;;11.00;99.90;;;;;;5072633;28;20220;-68
2023/01/06 08:58:29;;;;;;;2.57;1.80;;;11.00;99.90;;;;;;5074212;28;20208;-67
2023/01/06 09:01:00;;;;;;;4.87;1.50;;;11.00;99.90;;;;;;5073547;28;20208;-68
2023/01/06 09:03:28;;;;;;;1.93;1.80;;;11.00;99.90;;;;;;5106696;28;20538;-68
2023/01/06 09:05:58;;;;;;;1.73;1.73;;;11.10;99.90;;;;;;5073506;28;20192;-67
2023/01/06 09:08:26;;;;;;;2.13;1.90;;;11.10;99.90;;;;;;5072474;28;20646;-68
2023/01/06 09:10:55;;;;;;;1.83;1.73;;;11.10;99.90;;;;;;5073756;28;20578;-67
2023/01/06 09:13:23;;;;;;;2.60;2.00;;;11.20;99.90;;;;;;5073523;28;20207;-67
2023/01/06 09:15:54;;;;;;;1.90;1.80;;;11.20;99.90;;;;;;5073752;28;20232;-68
2023/01/06 09:18:23;;;;;;;1.87;1.70;;;11.30;99.90;;;;;;5073746;28;20208;-67
2023/01/06 09:20:51;;;;;;;2.03;1.80;;;11.30;99.90;;;;;;5073585;28;20221;-68
2023/01/06 09:23:22;;;;;;;1.77;1.77;;;11.30;99.90;;;;;;5073629;28;20195;-68
2023/01/06 09:25:50;;;;;;;3.83;1.90;;;11.40;99.90;;;;;;5073487;28;20203;-68
2023/01/06 09:28:19;;;;;;;2.00;1.90;;;11.40;99.90;;;;;;5073401;28;20196;-68
2023/01/06 09:30:47;;;;;;;1.60;1.60;;;11.40;99.90;;;;;;5072427;28;20193;-68
2023/01/06 09:33:16;;;;;;;1.57;1.40;;;11.40;99.90;;;;;;5073019;28;20196;-68
2023/01/06 09:35:44;;;;;;;1.90;1.80;;;11.40;99.90;;;;;;5073116;28;20262;-68
2023/01/06 09:38:14;;;;;;;3.90;1.80;;;11.40;99.90;;;;;;5072405;28;20191;-68
2023/01/06 09:40:57;;;;;;;1.50;1.50;;;11.40;99.90;;;;;;5073679;28;20212;-68
2023/01/06 09:43:37;;;;;;;2.57;1.50;;;11.40;99.90;;;;;;5073218;28;20675;-68
2023/01/06 09:46:08;;;;;;;2.30;1.87;;;11.40;99.90;;;;;;5073246;28;20186;-68
2023/01/06 09:48:41;;;;;;;1.70;1.60;;;11.30;99.90;;;;;;5073608;28;20196;-67
2023/01/06 09:51:18;;;;;;;2.10;1.90;;;11.30;99.90;;;;;;5072165;28;20184;-68
2023/01/06 09:53:51;;;;;;;1.80;1.80;;;11.40;99.90;;;;;;5073326;28;20650;-68
2023/01/06 09:56:24;;;;;;;1.67;1.57;;;11.30;99.90;;;;;;5073428;28;20184;-68
2023/01/06 09:59:03;;;;;;;1.93;1.90;;;11.40;99.90;;;;;;5073237;28;20693;-68
2023/01/06 10:01:36;;;;;;;1.60;1.60;;;11.30;99.90;;;;;;5071652;28;20196;-69
2023/01/06 10:04:04;;;;;;;1.80;1.80;;;11.30;99.90;;;;;;5073511;28;20188;-68
2023/01/06 10:06:37;;;;;;;1.70;1.60;;;11.20;99.90;;;;;;5072923;28;20195;-69
2023/01/06 10:09:17;;;;;;;1.63;1.53;;;11.20;99.90;;;;;;5072319;28;20188;-68
2023/01/06 10:11:57;;;;;;;1.60;1.60;;;11.20;99.90;;;;;;5073188;28;20176;-68
2023/01/06 10:14:37;;;;;;;1.60;1.60;;;11.10;99.90;;;;;;5072874;28;20272;-68
2023/01/06 10:17:25;;;;;;;1.97;1.87;;;11.10;99.90;;;;;;5105258;28;20235;-68
2023/01/06 10:20:07;;;;;;;1.70;1.70;;;11.10;99.90;;;;;;5073032;28;20184;-68
2023/01/06 10:22:47;;;;;;;2.00;2.00;;;11.10;99.90;;;;;;5072696;28;20273;-69
2023/01/06 10:25:19;;;;;;;2.90;2.20;;;11.10;99.90;;;;;;5072810;28;20274;-69
2023/01/06 10:27:53;;;;;;;2.00;2.00;;;11.10;99.90;;;;;;5074537;28;20204;-69
2023/01/06 10:30:27;;;;;;;1.80;1.80;;;11.10;99.90;;;;;;5086827;28;20718;-69
2023/01/06 10:33:04;;;;;;;2.20;2.10;;;11.10;99.90;;;;;;5072519;28;20200;-68
2023/01/06 10:35:33;;;;;;;2.47;2.37;;;11.10;99.90;;;;;;5104808;28;20542;-68
2023/01/06 10:38:06;;;;;;;2.10;2.10;;;11.10;99.90;;;;;;5072547;28;20655;-68
2023/01/06 10:40:35;;;;;;;2.27;2.17;;;11.20;99.90;;;;;;5072661;28;20250;-68
2023/01/06 10:43:08;;;;;;;3.17;1.93;;;11.20;99.90;;;;;;5075347;28;20188;-68
2023/01/06 10:50:19;;;;;;;1.70;1.60;;;11.40;99.90;;;;;;5076653;28;20282;-68
2023/01/06 10:52:49;;;;;;;1.50;1.40;;;11.50;99.90;;;;;;5076005;28;20188;-68
2023/01/06 10:55:36;;;;;;;1.80;1.70;;;11.60;99.90;;;;;;5076204;28;20204;-68
2023/01/06 10:58:17;;;;;;;2.63;1.50;;;11.60;99.90;;;;;;5075863;28;20222;-68
2023/01/06 11:00:58;;;;;;;1.97;1.87;;;11.60;99.90;;;;;;5059639;28;20228;-68
2023/01/06 11:04:10;;;;;;;2.20;2.00;;;11.50;99.90;;;;;;5056166;28;20203;-68
2023/01/06 11:06:43;;;;;;;2.50;2.27;;;11.50;99.90;;;;;;5088384;28;20651;-69
2023/01/06 11:09:26;;;;;;;1.97;1.87;;;11.60;99.90;;;;;;5055176;28;20212;-68
2023/01/06 11:11:56;;;;;;;1.73;1.73;;;11.60;99.90;;;;;;5055748;28;20192;-68
2023/01/06 11:14:30;;;;;;;1.80;1.70;;;11.70;99.90;;;;;;5088672;28;20269;-69
2023/01/06 11:17:01;;;;;;;2.23;1.90;;;11.80;99.90;;;;;;5055938;28;20239;-68
2023/01/06 11:19:36;;;;;;;2.00;2.00;;;11.80;99.90;;;;;;5055561;28;20240;-68
2023/01/06 11:22:06;;;;;;;2.73;2.43;;;11.80;99.90;;;;;;5054446;28;20208;-68
2023/01/06 11:24:51;;;;;;;2.43;2.33;;;11.70;99.90;;;;;;5055736;28;20195;-68
2023/01/06 11:27:20;;;;;;;2.90;2.80;;;11.60;99.90;;;;;;5054302;28;20185;-68
2023/01/06 11:29:49;;;;;;;2.63;2.53;;;11.50;99.90;;;;;;5054153;28;20715;-69
2023/01/06 11:32:21;;;;;;;2.83;2.73;;;11.50;99.90;;;;;;5055309;28;20229;-68
2023/01/06 11:34:54;;;;;;;2.70;2.60;;;11.40;99.90;;;;;;5054101;28;20204;-68
2023/01/06 11:37:34;;;;;;;2.70;2.60;;;11.40;99.90;;;;;;5055949;28;20279;-69
2023/01/06 11:40:04;;;;;;;2.70;2.60;;;11.40;99.90;;;;;;5055171;28;20551;-68
2023/01/06 11:42:39;;;;;;;2.87;2.77;;;11.40;99.90;;;;;;5055415;28;20204;-68
2023/01/06 11:45:31;;;;;;;2.77;2.67;;;11.30;99.90;;;;;;5055147;28;20280;-68
2023/01/06 11:47:59;;;;;;;2.70;2.53;;;11.30;99.90;;;;;;5055108;28;20193;-69
2023/01/06 11:50:28;;;;;;;2.77;2.67;;;11.30;99.90;;;;;;5070398;28;20196;-68
2023/01/06 11:53:04;;;;;;;2.80;2.60;;;11.30;99.90;;;;;;5054904;28;20276;-68
2023/01/06 11:55:33;;;;;;;2.47;2.47;;;11.30;99.90;;;;;;5054502;28;20204;-69
2023/01/06 11:58:08;;;;;;;2.63;2.53;;;11.30;99.90;;;;;;5054734;28;20215;-69
2023/01/06 12:00:48;;;;;;;3.57;3.47;;;11.30;99.90;;;;;;5054035;28;20192;-68
2023/01/06 12:03:23;;;;;;;4.50;4.13;;;11.40;99.90;;;;;;5054734;28;20304;-68
2023/01/06 12:05:59;;;;;;;5.10;4.70;;;11.50;99.90;;;;;;5053429;28;20558;-68
2023/01/06 12:08:34;;;;;;;5.60;5.13;;;11.60;99.90;;;;;;5054663;28;20550;-68
2023/01/06 12:11:10;;;;;;;6.20;5.60;;;11.50;99.90;;;;;;5036751;28;20689;-68
2023/01/06 12:13:38;;;;;;;7.83;6.90;;;11.50;99.90;;;;;;5054834;28;20192;-68
2023/01/06 12:16:24;;;;;;;10.17;7.23;;;11.40;99.90;;;;;;5053055;28;20231;-68
2023/01/06 12:18:53;;;;;;;8.07;7.17;;;11.30;99.90;;;;;;5053959;28;20196;-69
2023/01/06 12:21:27;;;;;;;8.70;6.70;;;11.40;99.90;;;;;;5054287;28;20215;-69
2023/01/06 12:23:58;;;;;;;6.90;6.27;;;11.40;99.90;;;;;;5086847;28;20192;-69
2023/01/06 12:26:28;;;;;;;7.63;6.77;;;11.40;99.90;;;;;;5054765;28;20243;-69
2023/01/06 12:28:59;;;;;;;8.13;7.07;;;11.40;99.90;;;;;;5054269;28;20184;-68
2023/01/06 12:31:42;;;;;;;7.50;6.60;;;11.40;99.90;;;;;;5054249;28;20197;-69
2023/01/06 12:34:16;;;;;;;6.53;6.03;;;11.40;99.90;;;;;;5054388;28;20555;-68
2023/01/06 12:36:48;;;;;;;7.67;6.97;;;11.30;99.90;;;;;;5052985;28;20189;-68
2023/01/06 12:39:23;;;;;;;7.13;6.53;;;11.30;99.90;;;;;;5054125;28;20664;-69
2023/01/06 12:41:55;;;;;;;6.33;5.73;;;11.30;99.90;;;;;;5053337;28;20578;-68
2023/01/06 12:44:36;;;;;;;7.07;6.07;;;11.30;99.90;;;;;;5054281;28;20188;-68
2023/01/06 12:47:13;;;;;;;6.10;5.47;;;11.40;99.90;;;;;;5053914;28;20195;-68
2023/01/06 12:49:47;;;;;;;6.40;5.90;;;11.50;99.90;;;;;;5053887;28;20199;-68
2023/01/06 12:52:23;;;;;;;7.40;6.70;;;11.50;99.90;;;;;;5052549;28;20184;-68
2023/01/06 12:54:54;;;;;;;7.77;6.30;;;11.50;99.90;;;;;;5054264;28;20197;-68
2023/01/06 12:57:49;;;;;;;6.77;6.17;;;11.50;99.90;;;;;;5054209;28;20211;-68
2023/01/06 13:00:34;;;;;;;7.00;6.30;;;11.60;99.90;;;;;;5053786;28;20299;-68
2023/01/06 13:03:41;;;;;;;6.50;5.83;;;11.70;99.90;;;;;;5068971;28;20212;-68
2023/01/06 13:06:21;;;;;;;5.47;5.07;;;11.70;99.90;;;;;;5052714;28;20204;-68
2023/01/06 13:09:02;;;;;;;5.07;4.67;;;11.70;99.90;;;;;;5054067;28;20193;-68
2023/01/06 13:11:47;;;;;;;4.17;3.73;;;11.80;99.90;;;;;;5052660;28;20197;-68
2023/01/06 13:14:22;;;;;;;3.43;3.33;;;11.90;99.90;;;;;;5053549;28;20185;-68
2023/01/06 13:16:57;;;;;;;3.13;3.03;;;12.00;99.90;;;;;;5053425;28;20736;-68
2023/01/06 13:19:42;;;;;;;3.23;2.90;;;12.10;99.90;;;;;;5053422;28;20192;-68
2023/01/06 13:22:16;;;;;;;3.33;3.03;;;12.10;99.90;;;;;;5053336;28;20234;-68
2023/01/06 13:24:58;;;;;;;3.50;3.30;;;12.10;99.90;;;;;;5053393;28;20236;-68
2023/01/06 13:27:39;;;;;;;3.47;3.27;;;12.10;99.90;;;;;;5053306;28;20667;-68
2023/01/06 13:30:28;;;;;;;5.10;4.70;;;12.00;99.90;;;;;;5053808;28;20203;-68
2023/01/06 13:33:16;;;;;;;5.63;5.23;;;12.00;99.90;;;;;;5052675;28;20181;-68
2023/01/06 13:36:03;;;;;;;7.53;6.23;;;12.00;99.90;;;;;;5052281;28;20196;-69
2023/01/06 13:38:53;;;;;;;7.10;6.43;;;11.90;99.90;;;;;;5085458;28;20180;-68
2023/01/06 13:41:26;;;;;;;7.37;6.73;;;11.80;99.90;;;;;;5053466;28;20718;-68
2023/01/06 13:43:56;;;;;;;9.77;6.80;;;11.70;99.90;;;;;;5053339;28;20197;-68
2023/01/06 13:46:27;;;;;;;7.40;6.20;;;11.70;99.90;;;;;;5053191;28;20224;-68
2023/01/06 13:48:59;;;;;;;7.40;6.70;;;11.70;99.90;;;;;;5053088;28;20651;-68
2023/01/06 13:51:31;;;;;;;6.63;6.13;;;11.80;99.90;;;;;;5053033;28;20193;-68
2023/01/06 13:54:01;;;;;;;6.30;5.80;;;11.80;99.90;;;;;;5052957;28;20212;-68
2023/01/06 13:56:31;;;;;;;6.03;5.50;;;11.70;99.90;;;;;;5035408;28;20227;-69
2023/01/06 13:59:22;;;;;;;5.43;5.03;;;11.70;99.90;;;;;;5053462;28;20228;-69
2023/01/06 14:01:51;;;;;;;6.87;5.37;;;11.70;99.90;;;;;;5052847;28;20188;-68
2023/01/06 14:04:45;;;;;;;5.23;4.83;;;11.80;99.90;;;;;;5053016;28;20296;-68
2023/01/06 14:07:30;;;;;;;5.53;4.93;;;11.90;99.90;;;;;;5052781;28;20189;-68
2023/01/06 14:10:00;;;;;;;4.87;4.50;;;11.90;99.90;;;;;;5052839;28;20280;-68